Latest Weather Observations for Fingal

IDT60801

Issued at 9:01 pm EDT Monday 8 February 2016 (issued every 30 minutes, with the page automatically refreshed every 10 minutes)

About weather observations | Map of weather stations | Latest weather observations for TAS | Other Formats
Station Details ID: 092012 Name: FINGAL (LEGGE STREET) Lat: -41.64 Lon: 147.97 Height: 237.0 m
Data from the previous 72 hours. | See also: Recent months at Fingal
Date/Time
EDT
Temp
°C
App
Temp
°C
Dew
Point
Rel
Hum
%
Delta-T
°C
Wind Press
QNH
hPa
Press
MSL
hPa
Rain
since 9 am
mm
Dir
 
Spd
km/h
Gust
km/h
Spd
kts
Gust
kts
08/09:00pm 19.0 18.0 15.5 80 2.1 NNE 15 20 8 11 - - 0.0
08/08:30pm 19.7 19.0 15.4 76 2.6 NE 13 20 7 11 - - 0.0
08/08:00pm 19.9 19.2 15.3 75 2.7 NE 13 22 7 12 - - 0.0
08/07:30pm 20.2 19.2 15.6 75 2.8 NNE 15 20 8 11 - - 0.0
08/07:00pm 20.8 19.4 15.6 72 3.1 NE 17 24 9 13 - - 0.0
08/06:30pm 21.8 20.7 15.4 67 3.9 NE 15 20 8 11 - - 0.0
08/06:00pm 22.6 21.3 15.9 66 4.1 NE 17 28 9 15 - - 0.0
08/05:30pm 22.9 21.0 15.7 64 4.4 NE 20 32 11 17 - - 0.0
08/05:00pm 23.5 21.7 16.1 63 4.5 NE 20 32 11 17 - - 0.0
08/04:30pm 23.6 22.0 16.4 64 4.4 NE 20 30 11 16 - - 0.0
08/04:00pm 23.8 21.7 16.3 63 4.6 NE 22 37 12 20 - - 0.0
08/03:30pm 24.4 22.4 15.6 58 5.4 NE 20 30 11 16 - - 0.0
08/03:00pm 24.8 22.1 15.7 57 5.6 NNE 24 33 13 18 - - 0.0
08/02:30pm 27.6 25.3 9.0 31 10.3 NW 11 19 6 10 - - 0.0
08/02:00pm 27.2 23.9 8.1 30 10.4 WNW 15 24 8 13 - - 0.0
08/01:30pm 25.9 23.7 10.9 39 8.5 WSW 13 20 7 11 - - 0.0
08/01:00pm 24.7 22.5 10.9 42 7.8 N 13 20 7 11 - - 0.0
08/12:30pm 24.0 22.8 11.7 46 7.0 W 9 17 5 9 - - 0.0
08/12:00pm 24.0 22.7 11.3 45 7.2 WSW 9 17 5 9 - - 0.0
08/11:30am 23.5 22.0 13.1 52 6.1 SW 13 22 7 12 - - 0.0
08/11:00am 23.4 22.2 12.7 51 6.2 SW 11 24 6 13 - - 0.0
08/10:30am 22.4 21.9 13.7 58 5.1 WSW 9 17 5 9 - - 0.0
08/10:00am 20.4 20.8 15.2 72 3.1 N 7 11 4 6 - - 0.0
08/09:30am 18.4 19.1 15.5 83 1.7 NNE 6 9 3 5 - - 0.0
08/09:00am 16.2 16.5 14.6 90 0.9 NNE 6 9 3 5 - - 0.0
08/08:30am 15.3 16.1 14.7 96 0.3 NNE 4 7 2 4 - - 0.0
08/08:00am 13.1 13.9 12.5 96 0.3 CALM 0 0 0 0 - - 0.0
08/07:30am 12.4 13.0 11.8 96 0.3 CALM 0 0 0 0 - - 0.0
08/07:00am 12.2 12.6 11.4 95 0.4 CALM 0 0 0 0 - - 0.0
08/06:30am 12.2 12.3 11.4 95 0.4 NNW 2 7 1 4 - - 0.0
08/06:00am 12.9 13.6 12.1 95 0.4 CALM 0 0 0 0 - - 0.0
08/05:30am 12.2 12.6 11.3 94 0.5 CALM 0 0 0 0 - - 0.0
08/05:00am 12.5 11.8 11.4 93 0.6 NNE 6 7 3 4 - - 0.0
08/04:30am 13.0 13.5 11.7 92 0.7 CALM 0 0 0 0 - - 0.0
08/04:00am 13.6 13.1 12.2 91 0.8 SSE 6 7 3 4 - - 0.0
08/03:30am 14.1 13.8 12.8 92 0.7 SSW 6 9 3 5 - - 0.0
08/03:00am 13.9 14.7 12.6 92 0.7 CALM 0 0 0 0 - - 0.0
08/02:30am 14.3 15.1 12.7 90 0.9 CALM 0 0 0 0 - - 0.0
08/02:00am 14.9 14.6 13.3 90 0.9 SW 7 9 4 5 - - 0.0
08/01:30am 15.0 14.9 13.4 90 0.9 WSW 6 9 3 5 - - 0.0
08/01:00am 14.9 15.6 13.4 91 0.8 W 2 7 1 4 - - 0.0
08/12:30am 15.1 16.1 13.3 89 1.0 CALM 0 0 0 0 - - 0.0
08/12:00am 15.5 16.7 13.7 89 1.0 CALM 0 0 0 0 - - 0.0
 
Date/Time
EDT
Temp
°C
App
Temp
°C
Dew
Point
Rel
Hum
%
Delta-T
°C
Wind Press
QNH
hPa
Press
MSL
hPa
Rain
since 9 am
mm
Dir
 
Spd
km/h
Gust
km/h
Spd
kts
Gust
kts
07/11:30pm 15.7 16.9 13.7 88 1.1 CALM 0 0 0 0 - - 0.0
07/11:00pm 16.4 17.7 14.2 87 1.3 CALM 0 0 0 0 - - 0.0
07/10:30pm 17.0 18.4 14.3 84 1.6 CALM 0 0 0 0 - - 0.0
07/10:00pm 17.3 17.4 14.4 83 1.7 N 7 11 4 6 - - 0.0
07/09:30pm 18.3 18.4 14.4 78 2.3 NNW 7 11 4 6 - - 0.0
07/09:00pm 19.2 19.4 14.2 73 2.9 N 6 9 3 5 - - 0.0
07/08:30pm 19.8 20.0 14.2 70 3.3 NE 6 13 3 7 - - 0.0
07/08:00pm 20.3 20.2 14.0 67 3.7 NE 7 11 4 6 - - 0.0
07/07:30pm 21.2 20.6 13.6 62 4.4 ENE 9 15 5 8 - - 0.0
07/07:00pm 22.1 20.9 14.0 60 4.8 NE 13 20 7 11 - - 0.0
07/06:30pm 22.9 21.9 14.5 59 5.0 NE 13 20 7 11 - - 0.0
07/06:00pm 23.3 21.8 14.3 57 5.4 NE 15 28 8 15 - - 0.0
07/05:30pm 23.5 21.5 13.9 55 5.7 NE 17 26 9 14 - - 0.0
07/05:00pm 24.2 22.3 14.3 54 5.9 NE 17 26 9 14 - - 0.0
07/04:30pm 24.6 22.9 14.7 54 6.0 NNE 17 24 9 13 - - 0.0
07/04:00pm 25.7 25.2 14.8 51 6.6 N 11 20 6 11 - - 0.0
07/03:30pm 24.6 23.3 13.8 51 6.4 N 13 19 7 10 - - 0.0
07/03:00pm 24.9 23.5 13.5 49 6.7 N 13 19 7 10 - - 0.0
07/02:30pm 24.6 22.8 13.2 49 6.7 N 15 20 8 11 - - 0.0
07/02:00pm 24.4 23.7 14.2 53 6.1 N 11 19 6 10 - - 0.0
07/01:30pm 23.1 22.6 12.7 52 6.0 NNE 7 13 4 7 - - 0.0
07/01:00pm 22.8 22.6 13.6 56 5.4 NNE 7 11 4 6 - - 0.0
07/12:30pm 21.6 19.8 12.2 55 5.4 N 13 17 7 9 - - 0.0
07/12:00pm 21.5 20.4 12.1 55 5.3 N 9 13 5 7 - - 0.0
07/11:30am 20.7 19.6 12.1 58 4.9 NNW 9 17 5 9 - - 0.0
07/11:00am 20.5 19.2 11.2 55 5.2 WNW 9 15 5 8 - - 0.0
07/10:30am 19.7 18.8 11.5 59 4.6 NNW 7 13 4 7 - - 0.0
07/10:00am 19.2 18.3 11.5 61 4.3 NW 7 13 4 7 - - 0.0
07/09:30am 18.5 18.1 12.3 67 3.5 NW 6 7 3 4 - - 0.0
07/09:00am 17.4 17.4 12.3 72 2.8 W 4 7 2 4 - - 0.0
07/08:30am 15.7 15.5 13.0 84 1.5 W 6 7 3 4 - - 0.0
07/08:00am 15.3 14.8 12.6 84 1.5 W 7 9 4 5 - - 0.0
07/07:30am 14.6 14.3 12.8 89 1.0 WSW 6 9 3 5 - - 0.0
07/07:00am 14.2 15.0 12.4 89 1.0 CALM 0 0 0 0 - - 0.0
07/06:30am 14.2 14.9 12.1 87 1.1 CALM 0 0 0 0 - - 0.0
07/06:00am 14.9 14.4 12.2 84 1.5 E 6 11 3 6 - - 0.0
07/05:30am 15.6 14.6 12.4 81 1.8 NE 9 13 5 7 - - 0.0
07/05:00am 16.1 15.2 12.7 80 1.9 NE 9 13 5 7 - - 0.0
07/04:30am 16.4 15.7 13.1 81 1.9 ENE 9 13 5 7 - - 0.0
07/04:00am 16.7 17.4 13.4 81 1.9 NE 2 6 1 3 - - 0.0
07/03:30am 16.8 18.0 13.9 83 1.7 CALM 0 6 0 3 - - 0.0
07/03:00am 16.9 17.3 13.8 82 1.8 NNE 4 7 2 4 - - 0.0
07/02:30am 17.1 17.7 14.2 83 1.7 N 4 6 2 3 - - 0.0
07/02:00am 16.9 17.4 14.0 83 1.7 ENE 4 7 2 4 - - 0.0
07/01:30am 16.9 17.0 14.0 83 1.7 NE 6 9 3 5 - - 0.0
07/01:00am 16.8 16.7 13.9 83 1.7 NNE 7 9 4 5 - - 0.0
07/12:30am 16.8 16.9 13.9 83 1.7 NNE 6 9 3 5 - - 0.0
07/12:00am 16.9 17.7 13.8 82 1.8 ENE 2 7 1 4 - - 0.0
 
Date/Time
EDT
Temp
°C
App
Temp
°C
Dew
Point
Rel
Hum
%
Delta-T
°C
Wind Press
QNH
hPa
Press
MSL
hPa
Rain
since 9 am
mm
Dir
 
Spd
km/h
Gust
km/h
Spd
kts
Gust
kts
06/11:30pm 16.8 17.3 13.9 83 1.7 ENE 4 6 2 3 - - 0.0
06/11:00pm 16.4 17.6 13.7 84 1.5 CALM 0 0 0 0 - - 0.0
06/10:30pm 16.7 17.8 13.6 82 1.8 CALM 0 0 0 0 - - 0.0
06/10:00pm 17.0 17.0 13.7 81 1.9 NE 6 9 3 5 - - 0.0
06/09:30pm 17.3 17.2 13.8 80 2.0 NNE 7 9 4 5 - - 0.0
06/09:00pm 17.6 17.5 13.9 79 2.1 N 7 13 4 7 - - 0.0
06/08:30pm 19.1 18.7 14.1 73 2.9 NNE 9 17 5 9 - - 0.0
06/08:00pm 20.0 19.3 14.4 70 3.3 NE 11 17 6 9 - - 0.0
06/07:30pm 21.0 20.4 14.6 67 3.8 NE 11 20 6 11 - - 0.0
06/07:00pm 21.5 20.2 14.9 66 3.9 NNE 15 22 8 12 - - 0.0
06/06:30pm 22.1 20.4 14.7 63 4.4 NNE 17 26 9 14 - - 0.0
06/06:00pm 22.8 21.1 14.6 60 4.9 NE 17 26 9 14 - - 0.0
06/05:30pm 23.5 21.7 14.5 57 5.4 NNE 17 28 9 15 - - 0.0
06/05:00pm 23.6 21.7 14.3 56 5.5 NE 17 22 9 12 - - 0.0
06/04:30pm 23.3 22.1 14.0 56 5.5 NNE 13 19 7 10 - - 0.0
06/04:00pm 23.2 21.6 13.9 56 5.5 NNE 15 24 8 13 - - 0.0
06/03:30pm 22.3 20.6 13.6 58 5.1 NE 15 20 8 11 - - 0.0
06/03:00pm 23.0 21.3 13.5 55 5.6 N 15 24 8 13 - - 0.0
06/02:30pm 22.7 21.0 13.5 56 5.4 NNE 15 20 8 11 - - 0.0
06/02:00pm 22.3 20.4 14.2 60 4.8 NNE 17 24 9 13 - - 0.0
06/01:30pm 22.2 21.1 14.3 61 4.7 NE 13 26 7 14 - - 0.0
06/01:00pm 21.0 19.4 12.7 59 4.8 NE 13 24 7 13 - - 0.0
06/12:30pm 20.6 19.3 12.6 60 4.6 NE 11 22 6 12 - - 0.0
06/12:00pm 20.0 18.7 12.5 62 4.3 NE 11 19 6 10 - - 0.0
06/11:30am 19.5 19.0 13.7 69 3.4 NNE 9 13 5 7 - - 0.0
06/11:00am 18.8 18.2 12.3 66 3.7 E 7 13 4 7 - - 0.0
06/10:30am 18.5 18.5 12.5 68 3.4 NNE 4 9 2 5 - - 0.0
06/10:00am 17.9 16.9 12.4 70 3.1 NNW 9 11 5 6 - - 0.0
06/09:30am 17.7 17.9 11.9 69 3.2 NNE 2 7 1 4 - - 0.0
06/09:00am 17.6 17.9 12.3 71 3.0 N 2 6 1 3 - - 0.0
06/08:30am 17.2 18.0 12.7 75 2.5 CALM 0 0 0 0 - - 0.0
06/08:00am 16.7 16.7 13.6 82 1.8 N 6 9 3 5 - - 0.0
06/07:30am 16.4 17.1 13.5 83 1.6 NNW 2 9 1 5 - - 0.0
06/07:00am 16.3 17.3 13.2 82 1.8 CALM 0 0 0 0 - - 0.0
06/06:30am 16.1 17.1 13.2 83 1.6 CALM 0 0 0 0 - - 0.0
06/06:00am 16.1 16.2 13.9 87 1.3 NE 6 9 3 5 - - 0.0
06/05:30am 16.1 16.0 13.9 87 1.3 NNE 7 9 4 5 - - 0.0
06/05:00am 16.2 16.1 14.0 87 1.3 N 7 9 4 5 - - 0.0
06/04:30am 16.2 16.1 14.0 87 1.3 N 7 11 4 6 - - 0.0
06/04:00am 16.2 16.1 13.9 86 1.3 NNE 7 9 4 5 - - 0.0
06/03:30am 16.3 15.8 13.8 85 1.4 NNE 9 11 5 6 - - 0.0
06/03:00am 16.3 15.8 13.8 85 1.4 NE 9 11 5 6 - - 0.0
06/02:30am 16.5 16.4 14.0 85 1.4 NNE 7 13 4 7 - - 0.0
06/02:00am 16.6 16.2 14.2 86 1.4 NNE 9 13 5 7 - - 0.0
06/01:30am 16.7 16.4 14.3 86 1.4 NNE 9 15 5 8 - - 0.0
06/01:00am 16.8 16.5 14.3 85 1.4 NNE 9 13 5 7 - - 0.0
06/12:30am 16.8 16.8 14.3 85 1.4 NNW 7 11 4 6 - - 0.0
06/12:00am 16.9 16.8 14.0 83 1.7 NE 7 9 4 5 - - 0.0
 
Date/Time
EDT
Temp
°C
App
Temp
°C
Dew
Point
Rel
Hum
%
Delta-T
°C
Wind Press
QNH
hPa
Press
MSL
hPa
Rain
since 9 am
mm
Dir
 
Spd
km/h
Gust
km/h
Spd
kts
Gust
kts
05/11:30pm 16.9 16.5 14.0 83 1.7 NNE 9 17 5 9 - - 0.0
05/11:00pm 17.1 15.8 13.8 81 1.9 NNE 13 17 7 9 - - 0.0
05/10:30pm 17.1 15.5 13.8 81 1.9 NNE 15 20 8 11 - - 0.0
05/10:00pm 17.2 16.0 13.9 81 1.9 NNE 13 20 7 11 - - 0.0
05/09:30pm 17.3 16.0 13.8 80 2.0 NNE 13 19 7 10 - - 0.0

Other Formats:

Comma delimited format used in spreadsheet applications
http://www.bom.gov.au/fwo/IDT60801/IDT60801.95974.axf

JavaScript Object Notation format (JSON) in row-major order
http://www.bom.gov.au/fwo/IDT60801/IDT60801.95974.json